Tiempo atmosférico en la estación meteorológica de Arevalo, Ávila (820 m.)



Fecha
DESCASC
Temp. máxima en grados centígrados (hora)
DESCASC
Temp. mínima en grados centígrados (hora)
DESCASC
Temp. media en grados centígrados
DESCASC
Racha de viento máxima en m/sg (hora)
DESCASC
Velocidad máxima media en intervalos de 10 minutos(hora)
DESCASC
Precipitaciones diarias en mm
DESCASC
Precipitaciones de 00:00 a 06:00 en mm
DESCASC
Precipitaciones de 06:00 a 12:00 en mm
DESCASC
Precipitaciones de 12:00 a 18:00 en mm
DESCASC
Precipitaciones de 18:00 a 24:00 en mm
DESCASC
03-12-2020 9.7 (15:40) -4.7 (07:30) 2.5 13.06 (21:00) 8.33 (23:40) 0 0 0 0 0
02-12-2020 7.9 (15:50) -2.2 (23:40) 2.9 8.06 (16:40) 4.72 (13:10) 0 0 0 0 0
01-12-2020 10 (16:40) -1.4 (06:50) 4.3 3.33 (01:30) 2.22 (01:30) 0 0 0 0 0
30-11-2020 13.3 (15:20) 1.8 (00:00) 7.6 3.61 (22:50) 2.78 (22:50) 0 0 0 0 0
29-11-2020 13.4 (14:30) 2.9 (00:00) 8.1 9.72 (11:30) 6.39 (11:30) 0 0 0 0 0
28-11-2020 9.7 (14:50) 1.1 (00:00) 5.4 4.17 (13:40) 2.5 (14:30) 0 0 0 0 0
27-11-2020 12.3 (13:40) 4.7 (00:00) 8.5 8.61 (12:40) 5 (14:10) 0.2 0.2 0 0 0
26-11-2020 12.1 (15:50) 7.3 (00:00) 9.7 13.61 (12:30) 8.61 (12:30) 2.2 0 0 0 2.2
25-11-2020 12.7 (12:40) 0 (00:00) 6.3 13.33 (14:20) 8.61 (14:30) 0 0 0 0 0
24-11-2020 13 (13:50) -0.5 (-00:0) 6.3 5 (13:10) 3.06 (13:00) 0 0 0 0 0
23-11-2020 14.5 (15:50) -1.3 (-00:0) 6.6 3.89 (14:40) 2.5 (13:30) 0 0 0 0 0
22-11-2020 14.8 (14:30) 0.4 (00:00) 7.6 3.89 (01:30) 2.78 (01:30) 0 0 0 0 0
21-11-2020 15.1 (15:30) -1.7 (-00:0) 6.7 3.61 (20:30) 2.22 (17:20) 0 0 0 0 0
20-11-2020 12.8 (16:40) 0.4 (00:00) 6.6 4.72 (13:50) 2.5 (13:50) 0 0 0 0 0
19-11-2020 18.3 (15:50) 3.5 (00:00) 10.9 4.72 (15:10) 2.78 (17:00) 0 0 0 0 0
18-11-2020 21.5 (14:50) 3.9 (00:00) 12.7 3.89 (13:50) 2.22 (03:20) 0 0 0 0 0
17-11-2020 20.1 (15:30) 2.4 (00:00) 11.3 3.06 (09:30) 2.22 (09:40) 0 0 0 0 0
16-11-2020 15.5 (13:50) 6.1 (00:00) 10.8 6.67 (02:30) 3.61 (00:10) 0 0 0 0 0
15-11-2020 17.3 (13:30) 9.3 (00:00) 13.3 16.11 (13:40) 11.11 (13:40) 0 0 0 0 0
14-11-2020 17 (15:20) 7.8 (00:00) 12.4 7.22 (19:00) 3.89 (11:20) 0 0 0 0 0
13-11-2020 15.2 (15:00) 5.4 (00:00) 10.3 4.44 (15:40) 2.78 (15:30) 0 0 0 0 0
12-11-2020 15.4 (14:50) 5.4 (00:00) 10.4 4.72 (23:59) 2.78 (23:59) 0 0 0 0 0
11-11-2020 12.5 (15:20) 3.1 (00:00) 7.8 4.72 (14:00) 3.33 (14:00) 0.2 0.2 0 0 0
10-11-2020 12.2 (15:50) 3.2 (00:00) 7.7 4.17 (16:50) 2.78 (16:50) 0 0 0 0 0
09-11-2020 14.9 (14:40) 5.8 (00:00) 10.3 5.83 (12:00) 3.33 (13:10) 0.2 0.2 0 0 0
08-11-2020 16.6 (14:20) 5.2 (00:00) 10.9 10.28 (11:40) 6.67 (16:00) 0.4 0 0 0.2 0.2
07-11-2020 14.8 (14:30) 6.4 (00:00) 10.6 15.56 (00:40) 9.72 (00:40) 1.8 1.8 0 0 0
06-11-2020 18.2 (14:20) 10.7 (00:00) 14.5 17.5 (20:00) 9.17 (20:00) 8.6 0 0 0 8.6
05-11-2020 13.8 (15:50) 6 (00:00) 9.9 13.89 (14:20) 8.89 (14:20) 3.2 0.4 0 0 2.8

Gráficas

Temp. máximas Temp. mínimas Temp. medias Precipitaciones Rachas de viento máximas Velocidades máximas media en intervalos de 10 minutos

Datos horarios

Fecha y hora oficial Temperatura (ºC) Velocidad del viento (km/h) Dirección del viento Racha (km/h) Dirección de racha Precipitación (mm) Presión (hPa) Tendencia (hPa) Humedad (%)
2020-12-04 23:00:00 0 14 Oeste 24 Oeste 0 -- -- 92
2020-12-04 22:00:00 0.4 14 Oeste 27 Oeste 0 -- -- 90
2020-12-04 21:00:00 1.2 15 Oeste 28 Noroeste 0 -- -- 87
2020-12-04 20:00:00 1 12 Oeste 23 Oeste 0 -- -- 88
2020-12-04 19:00:00 1.1 12 Oeste 31 Oeste 0 -- -- 85
2020-12-04 18:00:00 2.1 20 Noroeste 40 Oeste 0 -- -- 79
2020-12-04 17:00:00 3.2 21 Oeste 35 Oeste 0 -- -- 76
2020-12-04 16:00:00 3.3 19 Oeste 49 Oeste 0 -- -- 77
2020-12-04 15:00:00 4.3 24 Oeste 54 Oeste 0 -- -- 69
2020-12-04 14:00:00 4.4 26 Oeste 55 Oeste 0 -- -- 68
2020-12-04 13:00:00 3.6 22 Noroeste 45 Oeste 0 -- -- 74
2020-12-04 12:00:00 3.7 24 Oeste 45 Noroeste 0 -- -- 78
2020-12-04 11:00:00 3.1 27 Oeste 46 Oeste 0 -- -- 84
2020-12-04 10:00:00 2.4 23 Oeste 42 Oeste 0 -- -- 85
2020-12-04 09:00:00 2 19 Oeste 36 Noroeste 0 -- -- 89
2020-12-04 08:00:00 2 18 Oeste 41 Oeste 0 -- -- 89
2020-12-04 07:00:00 2.5 21 Noroeste 37 Oeste 0 -- -- 89
2020-12-04 06:00:00 2.6 24 Oeste 47 Oeste 0.4 -- -- 88
2020-12-04 05:00:00 3.6 18 Oeste 45 Noroeste 0.2 -- -- 90
2020-12-04 04:00:00 4.3 18 Noroeste 45 Oeste 0.4 -- -- 91
2020-12-04 03:00:00 5.7 30 Oeste 63 Noroeste 1.6 -- -- 89
2020-12-04 02:00:00 5.7 27 Oeste 50 Oeste 0 -- -- 89
2020-12-04 01:00:00 6.1 29 Oeste 53 Oeste 0 -- -- 82
2020-12-04 00:00:00 6.3 27 Oeste 42 Oeste 0 -- -- 77
2020-12-03 23:00:00 6.3 24 Oeste 42 Oeste 0 -- -- 76
2020-12-03 22:00:00 6.3 27 Oeste 46 Oeste 0 -- -- 72
2020-12-03 21:00:00 6 23 Oeste 47 Sudoeste 0 -- -- 71
2020-12-03 20:00:00 5.8 21 Sudoeste 33 Sudoeste 0 -- -- 68
2020-12-03 19:00:00 6.2 17 Oeste 36 Noroeste 0 -- -- 65
2020-12-03 18:00:00 6.4 18 Noroeste 39 Oeste 0 -- -- 65
2020-12-03 17:00:00 8.2 23 Oeste 39 Noroeste 0 -- -- 51
2020-12-03 16:00:00 9.4 16 Oeste 33 Oeste 0 -- -- 40
2020-12-03 15:00:00 9.3 11 Oeste 32 Noroeste 0 -- -- 46
2020-12-03 14:00:00 9.4 16 Oeste 27 Oeste 0 -- -- 40
2020-12-03 13:00:00 8.6 11 Oeste 20 Sudoeste 0 -- -- 51
2020-12-03 12:00:00 6 8 Sur 17 Sur 0 -- -- 70
2020-12-03 11:00:00 2.4 9 Sur 15 Sur 0 -- -- 82
2020-12-03 10:00:00 -1.5 10 Sur 14 Sur 0 -- -- 89
2020-12-03 09:00:00 -3.9 7 Sur 13 Sur 0 -- -- 93
2020-12-03 08:00:00 -4.6 11 Sur 15 Sur 0 -- -- 93
2020-12-03 07:00:00 -4.5 7 Sudoeste 12 Sudoeste 0 -- -- 93
2020-12-03 06:00:00 -4.1 3 Sudoeste 10 Sur 0 -- -- 93
2020-12-03 05:00:00 -3.9 4 Sur 13 Sur 0 -- -- 93
2020-12-03 04:00:00 -3.8 8 Sur 12 Sur 0 -- -- 94
2020-12-03 03:00:00 -3.3 2 Sur 6 Sur 0 -- -- 92
2020-12-03 02:00:00 -2.9 4 Sur 10 Sur 0 -- -- 92
2020-12-03 01:00:00 -2.6 7 Sur 13 Sur 0 -- -- 92
2020-12-03 00:00:00 -2.2 2 Este 8 Oeste 0 -- -- 89
2020-12-02 23:00:00 -1.5 0 Calma 6 Oeste 0 -- -- 88
2020-12-02 22:00:00 -0.1 3 Este 6 Sur 0 -- -- 82
2020-12-02 21:00:00 1.4 3 Este 9 Este 0 -- -- 78
2020-12-02 20:00:00 2.3 3 Nordeste 12 Nordeste 0 -- -- 74
2020-12-02 19:00:00 3.5 5 Nordeste 15 Nordeste 0 -- -- 69
2020-12-02 18:00:00 5.3 5 Norte 21 Nordeste 0 -- -- 61
2020-12-02 17:00:00 6.7 15 Este 29 Nordeste 0 -- -- 54
2020-12-02 16:00:00 7.7 15 Este 23 Este 0 -- -- 54
2020-12-02 15:00:00 7.7 15 Nordeste 27 Nordeste 0 -- -- 54
2020-12-02 14:00:00 7.6 12 Nordeste 27 Este 0 -- -- 52
2020-12-02 13:00:00 7.3 15 Nordeste 28 Este 0 -- -- 54
2020-12-02 12:00:00 6.4 15 Este 28 Nordeste 0 -- -- 59
2020-12-02 11:00:00 5.4 13 Este 26 Nordeste 0 -- -- 73
2020-12-02 10:00:00 4.6 10 Nordeste 18 Nordeste 0 -- -- 84
2020-12-02 09:00:00 3.1 5 Norte 9 Norte 0 -- -- 96
2020-12-02 08:00:00 1.3 0 Calma 5 Sudoeste 0 -- -- 96
2020-12-02 07:00:00 0.6 0 Calma 3 Sudoeste 0 -- -- 96
2020-12-02 06:00:00 0.2 0 Calma 6 Sur 0 -- -- 96
2020-12-02 05:00:00 -0.3 0 Calma 8 Sur 0 -- -- 96
2020-12-02 04:00:00 -0.3 5 Sur 9 Sur 0 -- -- 96
2020-12-02 03:00:00 0 3 Sur 7 Sur 0 -- -- 96
2020-12-02 02:00:00 -0.5 4 Sur 9 Sur 0 -- -- 97
2020-12-02 01:00:00 0.1 4 Sur 7 Sur 0 -- -- 97
2020-12-02 00:00:00 0.7 5 Sur 8 Sudoeste 0 -- -- 97
2020-12-01 23:00:00 1 5 Sur 8 Sudoeste 0 -- -- 96
2020-12-01 22:00:00 1.6 6 Sur 8 Sur 0 -- -- 96
2020-12-01 21:00:00 2.4 5 Sudoeste 8 Sudoeste 0 -- -- 95
2020-12-01 20:00:00 3.6 6 Sur 8 Sur 0 -- -- 94
2020-12-01 19:00:00 5.3 4 Sudoeste 8 Sudoeste 0 -- -- 89
2020-12-01 18:00:00 7.1 3 Sudoeste 9 Oeste 0 -- -- 84
2020-12-01 17:00:00 9.3 3 Norte 8 Norte 0 -- -- 65
2020-12-01 16:00:00 9.4 3 Sudeste 6 Sudeste 0 -- -- 66
2020-12-01 15:00:00 7.2 3 Sudeste 6 Sudeste 0 -- -- 76
2020-12-01 14:00:00 4.5 5 Nordeste 9 Nordeste 0 -- -- 98
2020-12-01 13:00:00 3.3 3 Este 9 Nordeste 0 -- -- 100
2020-12-01 12:00:00 2.5 2 Este 5 Sudeste 0 -- -- 99
2020-12-01 11:00:00 1.1 3 Sudoeste 9 Sudoeste 0 -- -- 100
2020-12-01 10:00:00 -0.2 4 Sur 7 Sur 0 -- -- 99
2020-12-01 09:00:00 -1.1 0 Calma 5 Sudoeste 0 -- -- 99
2020-12-01 08:00:00 -1.2 4 Sur 6 Sur 0 -- -- 98
2020-12-01 07:00:00 -1.4 0 Calma 9 Sur 0 -- -- 97
2020-12-01 06:00:00 -1.2 3 Sur 11 Sudoeste 0 -- -- 97
2020-12-01 05:00:00 -0.8 3 Sur 8 Sudoeste 0 -- -- 96
2020-12-01 04:00:00 -0.2 0 Calma 6 Sudoeste 0 -- -- 96
2020-12-01 03:00:00 0 3 Sudoeste 6 Sudoeste 0 -- -- 96
2020-12-01 02:00:00 0.9 3 Sudeste 12 Sur 0 -- -- 96
2020-12-01 01:00:00 0.7 4 Sudoeste 10 Sudoeste 0 -- -- 95
2020-12-01 00:00:00 1.8 5 Sur 7 Sur 0 -- -- 95
2020-11-30 23:00:00 2.5 6 Sur 13 Sur 0 -- -- 95
2020-11-30 22:00:00 3.2 5 Sudoeste 8 Sudoeste 0 -- -- 93
2020-11-30 21:00:00 4.2 0 Calma 8 Sur 0 -- -- 91
2020-11-30 20:00:00 5.7 2 Sur 6 Sur 0 -- -- 89
2020-11-30 19:00:00 7.6 0 Calma 2 Noroeste 0 -- -- 83
2020-11-30 18:00:00 10.4 3 Nordeste 10 Nordeste 0 -- -- 74
2020-11-30 17:00:00 12.1 6 Nordeste 10 Nordeste 0 -- -- 65
2020-11-30 16:00:00 12.2 4 Nordeste 12 Nordeste 0 -- -- 64
2020-11-30 15:00:00 13 8 Nordeste 12 Nordeste 0 -- -- 62
2020-11-30 14:00:00 11.2 3 Nordeste 6 Norte 0 -- -- 72
2020-11-30 13:00:00 10.4 0 Calma 5 Sur 0 -- -- 74
2020-11-30 12:00:00 9.1 3 Sur 4 Sur 0 -- -- 81
2020-11-30 11:00:00 6.4 2 Sudoeste 5 Este 0 -- -- 89
2020-11-30 10:00:00 4.8 2 Nordeste 6 Noroeste 0 -- -- 93
2020-11-30 09:00:00 3.4 4 Sudoeste 8 Sur 0 -- -- 94
2020-11-30 08:00:00 3.7 2 Sur 6 Sudeste 0 -- -- 92
2020-11-30 07:00:00 4 3 Este 9 Este 0 -- -- 92
2020-11-30 06:00:00 4.2 4 Sudeste 6 Sudoeste 0 -- -- 93
2020-11-30 05:00:00 3.5 2 Sur 6 Sur 0 -- -- 94
2020-11-30 04:00:00 3.7 3 Sudeste 6 Sur 0 -- -- 93
2020-11-30 03:00:00 3.8 2 Sudeste 8 Este 0 -- -- 93
2020-11-30 02:00:00 4.1 3 Sudeste 12 Sur 0 -- -- 92
2020-11-30 01:00:00 5.1 6 Sur 9 Sur 0 -- -- 90
2020-11-30 00:00:00 4.5 6 Sur 11 Sudoeste 0 -- -- 91
2020-11-29 23:00:00 5.5 3 Sudoeste 6 Sudeste 0 -- -- 87
2020-11-29 22:00:00 5.8 5 Sudeste 12 Este 0 -- -- 87
2020-11-29 21:00:00 7 3 Sudeste 8 Sudeste 0 -- -- 84
2020-11-29 20:00:00 8.1 0 Calma 17 Sur 0 -- -- 80
2020-11-29 19:00:00 9.3 8 Sur 15 Sur 0 -- -- 77
2020-11-29 18:00:00 10.5 8 Sur 17 Sur 0 -- -- 73
2020-11-29 17:00:00 11.9 5 Sur 21 Sur 0 -- -- 68
2020-11-29 16:00:00 12.6 18 Sur 28 Sur 0 -- -- 64
2020-11-29 15:00:00 13.2 16 Sur 31 Sur 0 -- -- 62
2020-11-29 14:00:00 13.2 17 Sur 27 Sur 0 -- -- 62
2020-11-29 13:00:00 12.7 17 Sur 33 Sur 0 -- -- 63
2020-11-29 12:00:00 11.9 17 Sur 35 Sur 0 -- -- 65
2020-11-29 11:00:00 10.1 13 Sur 23 Sur 0 -- -- 71
2020-11-29 10:00:00 5.8 4 Sudeste 8 Este 0 -- -- 88
2020-11-29 09:00:00 3.6 5 Sur 9 Sudeste 0 -- -- 93
2020-11-29 08:00:00 2.9 5 Sudoeste 9 Sur 0 -- -- 92
2020-11-29 07:00:00 4.6 5 Sudeste 17 Sur 0 -- -- 89
2020-11-29 06:00:00 5.2 9 Sur 15 Sur 0 -- -- 88
2020-11-29 05:00:00 5.2 8 Sur 17 Sur 0 -- -- 90
2020-11-29 04:00:00 4.7 7 Sur 13 Sur 0 -- -- 90
2020-11-29 03:00:00 5.7 8 Sudeste 12 Sudeste 0 -- -- 86
2020-11-29 02:00:00 5.8 7 Sudeste 14 Sur 0 -- -- 84
2020-11-29 01:00:00 5.1 6 Sudeste 9 Sudeste 0 -- -- 89
2020-11-29 00:00:00 5.2 5 Sur 11 Sudeste 0 -- -- 89
2020-11-28 23:00:00 6.4 6 Sur 11 Sur 0 -- -- 88
2020-11-28 22:00:00 7.9 6 Sur 11 Sur 0 -- -- 85
2020-11-28 21:00:00 8.3 7 Sur 11 Sudoeste 0 -- -- 83
2020-11-28 20:00:00 8.7 5 Sur 14 Sudoeste 0 -- -- 82
2020-11-28 19:00:00 8.5 3 Sudoeste 5 Oeste 0 -- -- 89
2020-11-28 18:00:00 8.9 3 Sur 7 Sur 0 -- -- 86
2020-11-28 17:00:00 9.3 2 Sudoeste 6 Sudeste 0 -- -- 83
2020-11-28 16:00:00 9.3 3 Oeste 7 Noroeste 0 -- -- 81
2020-11-28 15:00:00 9.7 6 Noroeste 14 Oeste 0 -- -- 83
2020-11-28 14:00:00 8.7 5 Noroeste 15 Sudoeste 0 -- -- 90
2020-11-28 13:00:00 6.6 5 Oeste 12 Oeste 0 -- -- 100
2020-11-28 12:00:00 4.9 8 Sudoeste 12 Oeste 0 -- -- 100
2020-11-28 11:00:00 3.4 3 Sur 6 Sur 0 -- -- 99
2020-11-28 10:00:00 2.8 3 Sudoeste 8 Sur 0 -- -- 99
2020-11-28 09:00:00 1.5 4 Sur 8 Sur 0 -- -- 99
2020-11-28 08:00:00 1.6 4 Sudoeste 10 Sudoeste 0 -- -- 98
2020-11-28 07:00:00 2.7 4 Oeste 10 Sudeste 0 -- -- 96
2020-11-28 06:00:00 4.2 3 Norte 9 Oeste 0 -- -- 97
2020-11-28 05:00:00 4.5 0 Calma 8 Sudoeste 0 -- -- 97
2020-11-28 04:00:00 4.6 4 Sudoeste 7 Sur 0 -- -- 96
2020-11-28 03:00:00 4.3 0 Calma 4 Sur 0 -- -- 96
2020-11-28 02:00:00 4 2 Nordeste 7 Nordeste 0 -- -- 95
2020-11-28 01:00:00 5 4 Nordeste 13 Norte 0 -- -- 95
2020-11-28 00:00:00 4.8 7 Norte 9 Norte 0 -- -- 94
2020-11-27 23:00:00 5.4 0 Calma 6 Noroeste 0 -- -- 91
2020-11-27 22:00:00 7 3 Noroeste 6 Oeste 0 -- -- 87
2020-11-27 21:00:00 8.2 0 Calma 7 Norte 0 -- -- 85
2020-11-27 20:00:00 8.7 2 Norte 6 Noroeste 0 -- -- 84
2020-11-27 19:00:00 9 3 Noroeste 9 Oeste 0 -- -- 82
2020-11-27 18:00:00 9.7 4 Oeste 8 Oeste 0 -- -- 78
2020-11-27 17:00:00 10.6 5 Oeste 9 Oeste 0 -- -- 73
2020-11-27 16:00:00 11.1 4 Sudoeste 14 Sudeste 0 -- -- 70
2020-11-27 15:00:00 10.9 7 Sudeste 28 Sudeste 0 -- -- 71
2020-11-27 14:00:00 12.2 17 Este 30 Este 0 -- -- 66
2020-11-27 13:00:00 11.7 12 Este 31 Este 0 -- -- 67
2020-11-27 12:00:00 11.9 12 Este 23 Este 0 -- -- 76
2020-11-27 11:00:00 8.1 7 Este 14 Este 0 -- -- 90
2020-11-27 10:00:00 6.8 5 Nordeste 12 Este 0 -- -- 91
2020-11-27 09:00:00 6.1 3 Nordeste 10 Norte 0 -- -- 92
2020-11-27 08:00:00 6.5 3 Nordeste 12 Sudeste 0 -- -- 90
2020-11-27 07:00:00 6.4 3 Nordeste 13 Este 0 -- -- 90
2020-11-27 06:00:00 6.3 3 Sudeste 9 Nordeste 0 -- -- 93
2020-11-27 05:00:00 7 4 Sudeste 8 Sudeste 0 -- -- 92
2020-11-27 04:00:00 7.3 5 Este 8 Este 0.2 -- -- 96
2020-11-27 03:00:00 7.4 5 Nordeste 11 Este 0 -- -- 95
2020-11-27 02:00:00 8 6 Este 12 Este 0 -- -- 96
2020-11-27 01:00:00 7.2 5 Noroeste 13 Norte 0 -- -- 96
2020-11-27 00:00:00 7.3 8 Norte 10 Norte 0 -- -- 96
2020-11-26 23:00:00 7.6 5 Nordeste 12 Nordeste 0 -- -- 95
2020-11-26 22:00:00 7.9 4 Oeste 18 Sur 2 -- -- 92
2020-11-26 21:00:00 8.9 8 Sudoeste 21 Sudoeste 0.2 -- -- 83
2020-11-26 20:00:00 10.1 7 Este 23 Sudeste 0 -- -- 82
2020-11-26 19:00:00 11 12 Sudeste 23 Sudeste 0 -- -- 73
2020-11-26 18:00:00 11.2 13 Sudeste 28 Sudeste 0 -- -- 70
2020-11-26 17:00:00 11.5 14 Sudeste 31 Sudeste 0 -- -- 69
2020-11-26 16:00:00 11.9 17 Sudeste 33 Sudeste 0 -- -- 66
2020-11-26 15:00:00 11.5 12 Sudeste 38 Sudeste 0 -- -- 67
2020-11-26 14:00:00 11.3 25 Sudeste 44 Sudeste 0 -- -- 69
2020-11-26 13:00:00 11.7 21 Sudeste 49 Sudeste 0 -- -- 62
2020-11-26 12:00:00 11.3 21 Sudeste 39 Sur 0 -- -- 71
2020-11-26 11:00:00 10.6 18 Sudeste 33 Sudeste 0 -- -- 73
2020-11-26 10:00:00 9.9 19 Sur 37 Sur 0 -- -- 72
2020-11-26 09:00:00 9.3 15 Sudeste 31 Sudeste 0 -- -- 75
2020-11-26 08:00:00 8.8 18 Sudeste 33 Sudeste 0 -- -- 77
2020-11-26 07:00:00 8.7 19 Sudeste 35 Sudeste 0 -- -- 77
2020-11-26 06:00:00 8.3 14 Sudeste 28 Sudeste 0 -- -- 81
2020-11-26 05:00:00 8.8 17 Sudeste 33 Sur 0 -- -- 81
2020-11-26 04:00:00 9.3 18 Sur 41 Sudeste 0 -- -- 79
2020-11-26 03:00:00 9.4 21 Sur 32 Sudeste 0 -- -- 79
2020-11-26 02:00:00 9.7 15 Sudeste 38 Sur 0 -- -- 75
2020-11-26 01:00:00 10 10 Sur 26 Sur 0 -- -- 76
2020-11-26 00:00:00 10 21 Sur 31 Sur 0 -- -- 80
2020-11-25 23:00:00 9 9 Sudeste 21 Sur 0 -- -- 82
2020-11-25 22:00:00 9.7 15 Sur 26 Sur 0 -- -- 76
2020-11-25 21:00:00 9.9 13 Sur 35 Sudeste 0 -- -- 72
2020-11-25 20:00:00 9.5 14 Sudeste 24 Sudeste 0 -- -- 74
2020-11-25 19:00:00 9.8 13 Sudeste 22 Sudeste 0 -- -- 72
2020-11-25 18:00:00 9.9 16 Sudeste 35 Sudeste 0 -- -- 73
2020-11-25 17:00:00 10.3 10 Sur 33 Sur 0 -- -- 68
2020-11-25 16:00:00 10.3 17 Sur 36 Sur 0 -- -- 67
2020-11-25 15:00:00 10.8 24 Sur 48 Sur 0 -- -- 66
2020-11-25 14:00:00 12.2 24 Sur 41 Sur 0 -- -- 60
2020-11-25 13:00:00 12.7 26 Sur 38 Sur 0 -- -- 61
2020-11-25 12:00:00 12 22 Sur 34 Sur 0 -- -- 62
2020-11-25 11:00:00 9.8 13 Sur 25 Sur 0 -- -- 74
2020-11-25 10:00:00 6.3 5 Sudeste 11 Sur 0 -- -- 83
2020-11-25 09:00:00 1.4 7 Sur 10 Sudeste 0 -- -- 97
2020-11-25 08:00:00 0.4 4 Sur 7 Sur 0 -- -- 95
2020-11-25 07:00:00 0.5 5 Sur 8 Sur 0 -- -- 95
2020-11-25 06:00:00 0.2 2 Sudoeste 7 Sudoeste 0 -- -- 95
2020-11-25 05:00:00 0.9 2 Sur 9 Sur 0 -- -- 93
2020-11-25 04:00:00 1.6 4 Sur 8 Sudoeste 0 -- -- 92
2020-11-25 03:00:00 3 5 Sur 12 Sur 0 -- -- 90
2020-11-25 02:00:00 2.8 7 Sur 11 Sur 0 -- -- 94
2020-11-25 01:00:00 1.5 6 Sur 12 Sur 0 -- -- 94
2020-11-25 00:00:00 2.2 5 Sudoeste 8 Sudoeste 0 -- -- 93
2020-11-24 23:00:00 3 0 Calma 6 Sur 0 -- -- 89
2020-11-24 22:00:00 4.2 4 Sur 8 Sur 0 -- -- 88
2020-11-24 21:00:00 5.1 5 Sur 7 Sur 0 -- -- 83
2020-11-24 20:00:00 6.2 2 Oeste 5 Oeste 0 -- -- 82
2020-11-24 19:00:00 8 3 Sur 4 Sudoeste 0 -- -- 79
2020-11-24 18:00:00 10.2 0 Calma 4 Noroeste 0 -- -- 68
2020-11-24 17:00:00 11.5 3 Noroeste 12 Norte 0 -- -- 62
2020-11-24 16:00:00 12.1 5 Norte 16 Norte 0 -- -- 63
2020-11-24 15:00:00 12.8 8 Noroeste 17 Noroeste 0 -- -- 60
2020-11-24 14:00:00 12.8 8 Noroeste 18 Noroeste 0 -- -- 57
2020-11-24 13:00:00 12.6 11 Oeste 18 Noroeste 0 -- -- 57
2020-11-24 12:00:00 11.1 7 Oeste 13 Oeste 0 -- -- 63
2020-11-24 11:00:00 8 2 Sudoeste 6 Sudoeste 0 -- -- 77
2020-11-24 10:00:00 3 4 Sur 9 Sur 0 -- -- 89
2020-11-24 09:00:00 0.7 5 Sur 8 Sur 0 -- -- 93
2020-11-24 08:00:00 -0.1 3 Sudoeste 7 Sur 0 -- -- 93
2020-11-24 07:00:00 -0.2 5 Sur 8 Sudoeste 0 -- -- 92
2020-11-24 06:00:00 -0.3 5 Sur 10 Sur 0 -- -- 91
2020-11-24 05:00:00 0 3 Sudoeste 8 Sur 0 -- -- 90
2020-11-24 04:00:00 0.1 5 Sudoeste 8 Sudoeste 0 -- -- 89
2020-11-24 03:00:00 0.2 4 Sur 10 Sur 0 -- -- 90
2020-11-24 02:00:00 0.5 5 Sur 10 Sur 0 -- -- 90
2020-11-24 01:00:00 0.8 4 Sudoeste 8 Sudoeste 0 -- -- 88
2020-11-24 00:00:00 1.9 0 Calma 8 Sur 0 -- -- 83
2020-11-23 23:00:00 2.2 6 Sur 9 Sur 0 -- -- 82
2020-11-23 22:00:00 3.2 3 Sudoeste 9 Sur 0 -- -- 80
2020-11-23 21:00:00 4 4 Sudoeste 9 Sur 0 -- -- 79
2020-11-23 20:00:00 5.9 0 Calma 2 Sur 0 -- -- 72
2020-11-23 19:00:00 7.6 0 Calma 3 Noroeste 0 -- -- 66
2020-11-23 18:00:00 11 2 Noroeste 7 Norte 0 -- -- 56
2020-11-23 17:00:00 14.1 4 Norte 11 Nordeste 0 -- -- 43
2020-11-23 16:00:00 14.4 7 Nordeste 12 Nordeste 0 -- -- 33
2020-11-23 15:00:00 14 7 Nordeste 14 Norte 0 -- -- 36
2020-11-23 14:00:00 13.3 4 Nordeste 13 Norte 0 -- -- 54
2020-11-23 13:00:00 12.6 4 Nordeste 8 Nordeste 0 -- -- 54
2020-11-23 12:00:00 10.6 2 Nordeste 5 Sur 0 -- -- 59
2020-11-23 11:00:00 7.5 2 Sur 6 Sudoeste 0 -- -- 74
2020-11-23 10:00:00 2.9 3 Sudoeste 8 Sur 0 -- -- 85
2020-11-23 09:00:00 -0.3 2 Sudoeste 6 Sudoeste 0 -- -- 95
2020-11-23 08:00:00 -1.1 5 Sudoeste 7 Sur 0 -- -- 94
2020-11-23 07:00:00 -1.2 3 Sudoeste 7 Sur 0 -- -- 94
2020-11-23 06:00:00 -0.8 6 Sur 9 Sur 0 -- -- 94
2020-11-23 05:00:00 -0.5 3 Sudoeste 5 Sudoeste 0 -- -- 94
2020-11-23 04:00:00 -0.2 3 Sudoeste 6 Sur 0 -- -- 93
2020-11-23 03:00:00 0.4 3 Sudoeste 6 Sur 0 -- -- 92
2020-11-23 02:00:00 0.7 4 Sudoeste 8 Sur 0 -- -- 91
2020-11-23 01:00:00 1.2 6 Sudoeste 9 Sur 0 -- -- 90
2020-11-23 00:00:00 2 5 Sur 8 Sur 0 -- -- 89
2020-11-22 23:00:00 2.4 6 Sur 10 Sur 0 -- -- 87
2020-11-22 22:00:00 3.1 5 Sur 9 Sur 0 -- -- 87
2020-11-22 21:00:00 4.4 3 Sudoeste 6 Sudoeste 0 -- -- 84
2020-11-22 20:00:00 5.8 0 Calma 2 Este 0 -- -- 77
2020-11-22 19:00:00 8.2 0 Calma 2 Norte 0 -- -- 70
2020-11-22 18:00:00 11.7 0 Calma 5 Nordeste 0 -- -- 56
2020-11-22 17:00:00 14 3 Nordeste 9 Norte 0 -- -- 49
2020-11-22 16:00:00 14.5 4 Norte 12 Norte 0 -- -- 47
2020-11-22 15:00:00 14.7 4 Noroeste 12 Norte 0 -- -- 47
2020-11-22 14:00:00 14.3 7 Noroeste 12 Noroeste 0 -- -- 45
2020-11-22 13:00:00 13.8 7 Noroeste 13 Noroeste 0 -- -- 47
2020-11-22 12:00:00 12.3 4 Sudoeste 7 Sudoeste 0 -- -- 58
2020-11-22 11:00:00 9.1 3 Sur 5 Sur 0 -- -- 69
2020-11-22 10:00:00 4.9 3 Sudoeste 7 Sudoeste 0 -- -- 80
2020-11-22 09:00:00 1.2 4 Sudoeste 9 Sur 0 -- -- 89
2020-11-22 08:00:00 0.4 5 Sur 7 Sur 0 -- -- 90
2020-11-22 07:00:00 0.9 3 Sur 6 Sur 0 -- -- 86
2020-11-22 06:00:00 1.3 5 Sur 8 Sur 0 -- -- 85
2020-11-22 05:00:00 2.4 5 Sur 8 Sur 0 -- -- 80
2020-11-22 04:00:00 3.6 6 Sur 12 Sudoeste 0 -- -- 76
2020-11-22 03:00:00 2.3 5 Sudoeste 9 Sudoeste 0 -- -- 83
2020-11-22 02:00:00 2.1 5 Sur 14 Sur 0 -- -- 82
2020-11-22 01:00:00 1.7 4 Sudoeste 7 Sur 0 -- -- 86
2020-11-22 00:00:00 2.2 2 Oeste 9 Sur 0 -- -- 84
2020-11-21 23:00:00 2.8 5 Sur 8 Sur 0 -- -- 84
2020-11-21 22:00:00 3.1 0 Calma 5 Sur 0 -- -- 87
2020-11-21 21:00:00 4 2 Sudeste 13 Sur 0 -- -- 86
2020-11-21 20:00:00 5.8 3 Sur 6 Sur 0 -- -- 80
2020-11-21 19:00:00 7.8 0 Calma 5 Noroeste 0 -- -- 71
2020-11-21 18:00:00 10.4 4 Noroeste 10 Norte 0 -- -- 64
2020-11-21 17:00:00 13.4 5 Norte 10 Noroeste 0 -- -- 55
2020-11-21 16:00:00 15.1 2 Norte 7 Norte 0 -- -- 46
2020-11-21 15:00:00 14.6 3 Sur 8 Nordeste 0 -- -- 41
2020-11-21 14:00:00 13.1 4 Norte 9 Norte 0 -- -- 52
2020-11-21 13:00:00 11.9 2 Nordeste 6 Sur 0 -- -- 54
2020-11-21 12:00:00 9.2 0 Calma 5 Sudeste 0 -- -- 67
2020-11-21 11:00:00 6 0 Calma 4 Sudeste 0 -- -- 83
2020-11-21 10:00:00 2.3 0 Calma 4 Sur 0 -- -- 92
2020-11-21 09:00:00 -1 2 Sudeste 4 Sudeste 0 -- -- 95
2020-11-21 08:00:00 -1.6 0 Calma 5 Sur 0 -- -- 95
2020-11-21 07:00:00 -1.2 3 Sudoeste 8 Sudoeste 0 -- -- 95
2020-11-21 06:00:00 -0.8 2 Sudeste 7 Sudoeste 0 -- -- 95
2020-11-21 05:00:00 -0.3 0 Calma 5 Oeste 0 -- -- 93
2020-11-21 04:00:00 -0.3 3 Oeste 6 Sudoeste 0 -- -- 93
2020-11-21 03:00:00 -0.1 0 Calma 2 Sudoeste 0 -- -- 92
2020-11-21 02:00:00 0.1 0 Calma 4 Sudeste 0 -- -- 91
2020-11-21 01:00:00 1.1 0 Calma 3 Nordeste 0 -- -- 89
2020-11-21 00:00:00 2.1 0 Calma 3 Oeste 0 -- -- 88
2020-11-20 23:00:00 2.8 3 Noroeste 4 Oeste 0 -- -- 84
2020-11-20 22:00:00 4.9 3 Sudeste 9 Este 0 -- -- 78
2020-11-20 21:00:00 5.9 2 Este 13 Nordeste 0 -- -- 75
2020-11-20 20:00:00 6.8 5 Nordeste 9 Nordeste 0 -- -- 77
2020-11-20 19:00:00 8.2 3 Oeste 6 Norte 0 -- -- 71
2020-11-20 18:00:00 10.8 2 Noroeste 6 Norte 0 -- -- 62
2020-11-20 17:00:00 12.5 4 Nordeste 12 Nordeste 0 -- -- 51
2020-11-20 16:00:00 12.3 7 Nordeste 17 Nordeste 0 -- -- 51
2020-11-20 15:00:00 11.7 6 Nordeste 13 Nordeste 0 -- -- 55
2020-11-20 14:00:00 10.8 8 Este 17 Este 0 -- -- 60
2020-11-20 13:00:00 9.4 4 Este 10 Nordeste 0 -- -- 68
2020-11-20 12:00:00 7.8 4 Nordeste 11 Nordeste 0 -- -- 78
2020-11-20 11:00:00 6.4 6 Nordeste 12 Nordeste 0 -- -- 83
2020-11-20 10:00:00 5 0 Calma 4 Este 0 -- -- 93
2020-11-20 09:00:00 1.1 0 Calma 4 Norte 0 -- -- 97
2020-11-20 08:00:00 0.4 0 Calma 5 Sur 0 -- -- 95
2020-11-20 07:00:00 1.2 0 Calma 3 Sur 0 -- -- 95
2020-11-20 06:00:00 1.9 0 Calma 3 Sudoeste 0 -- -- 94
2020-11-20 05:00:00 3.1 0 Calma 5 Oeste 0 -- -- 93
2020-11-20 04:00:00 4.7 0 Calma 10 Este 0 -- -- 89
2020-11-20 03:00:00 5.5 4 Nordeste 12 Este 0 -- -- 88
2020-11-20 02:00:00 6.2 3 Nordeste 9 Este 0 -- -- 88
2020-11-20 01:00:00 7.2 3 Nordeste 13 Este 0 -- -- 86
2020-11-20 00:00:00 8 8 Este 14 Este 0 -- -- 85
2020-11-19 23:00:00 8.5 3 Nordeste 13 Nordeste 0 -- -- 87
2020-11-19 22:00:00 9.4 6 Este 12 Nordeste 0 -- -- 85
2020-11-19 21:00:00 10.3 6 Este 13 Nordeste 0 -- -- 85
2020-11-19 20:00:00 11.8 8 Nordeste 15 Nordeste 0 -- -- 82
2020-11-19 19:00:00 13 3 Norte 11 Norte 0 -- -- 82
2020-11-19 18:00:00 14.9 7 Norte 14 Norte 0 -- -- 75
2020-11-19 17:00:00 17 10 Norte 14 Norte 0 -- -- 67
2020-11-19 16:00:00 18 6 Norte 17 Nordeste 0 -- -- 62
2020-11-19 15:00:00 17.5 7 Nordeste 15 Nordeste 0 -- -- 61
2020-11-19 14:00:00 16.7 7 Nordeste 14 Norte 0 -- -- 63
2020-11-19 13:00:00 15.8 4 Este 7 Sudeste 0 -- -- 67
2020-11-19 12:00:00 13.5 3 Este 8 Nordeste 0 -- -- 73
2020-11-19 11:00:00 11.1 3 Nordeste 6 Nordeste 0 -- -- 76
2020-11-19 10:00:00 7.8 3 Sur 4 Sur 0 -- -- 88
2020-11-19 09:00:00 3.9 2 Oeste 4 Sur 0 -- -- 94
2020-11-19 08:00:00 3.5 0 Calma 8 Sur 0 -- -- 94
2020-11-19 07:00:00 4.2 6 Sur 9 Sur 0 -- -- 93
2020-11-19 06:00:00 4.5 5 Sur 9 Sur 0 -- -- 93
2020-11-19 05:00:00 4.3 5 Sur 8 Sur 0 -- -- 93
2020-11-19 04:00:00 4.9 4 Sudoeste 7 Sur 0 -- -- 91
2020-11-19 03:00:00 5.5 2 Sudoeste 6 Sur 0 -- -- 91
2020-11-19 02:00:00 6.5 4 Sur 6 Sur 0 -- -- 88
2020-11-19 01:00:00 6.6 2 Sur 8 Sur 0 -- -- 88
2020-11-19 00:00:00 7.2 4 Sudoeste 12 Sudoeste 0 -- -- 87
2020-11-18 23:00:00 7.4 7 Sudoeste 10 Sudoeste 0 -- -- 87
2020-11-18 22:00:00 8.7 2 Sur 8 Sur 0 -- -- 83
2020-11-18 21:00:00 9.6 3 Sur 5 Sur 0 -- -- 80
2020-11-18 20:00:00 11.1 0 Calma 3 Oeste 0 -- -- 75
2020-11-18 19:00:00 13.5 0 Calma 3 Nordeste 0 -- -- 66
2020-11-18 18:00:00 17 2 Nordeste 8 Norte 0 -- -- 51
2020-11-18 17:00:00 19.5 5 Norte 10 Norte 0 -- -- 44
2020-11-18 16:00:00 21.1 4 Noroeste 10 Noroeste 0 -- -- 37
2020-11-18 15:00:00 21.4 5 Oeste 10 Noroeste 0 -- -- 34
2020-11-18 14:00:00 20.6 6 Oeste 14 Noroeste 0 -- -- 35
2020-11-18 13:00:00 20.2 3 Oeste 8 Noroeste 0 -- -- 37
2020-11-18 12:00:00 17.5 4 Sur 9 Sudeste 0 -- -- 50
2020-11-18 11:00:00 12.9 3 Sudeste 9 Sur 0 -- -- 70
2020-11-18 10:00:00 8.6 4 Sudoeste 10 Sur 0 -- -- 83
2020-11-18 09:00:00 5 6 Sudoeste 10 Sur 0 -- -- 91
2020-11-18 08:00:00 4 5 Sur 9 Sur 0 -- -- 92
2020-11-18 07:00:00 4.3 4 Sudoeste 10 Sudoeste 0 -- -- 91
2020-11-18 06:00:00 4 5 Sur 10 Sur 0 -- -- 93
2020-11-18 05:00:00 4.3 8 Sur 10 Sur 0 -- -- 93
2020-11-18 04:00:00 4.7 4 Sur 12 Sur 0 -- -- 91
2020-11-18 03:00:00 5.3 6 Sur 10 Sur 0 -- -- 91
2020-11-18 02:00:00 5.5 3 Sudoeste 10 Sur 0 -- -- 92
2020-11-18 01:00:00 6.2 5 Sur 11 Sur 0 -- -- 92
2020-11-18 00:00:00 6.6 4 Sur 8 Sur 0 -- -- 88
2020-11-17 23:00:00 7.1 5 Sudoeste 10 Sur 0 -- -- 87
2020-11-17 22:00:00 7.5 5 Sudoeste 9 Sudoeste 0 -- -- 86
2020-11-17 21:00:00 8.9 2 Sudoeste 6 Sur 0 -- -- 82
2020-11-17 20:00:00 10.4 5 Sur 6 Sur 0 -- -- 78
2020-11-17 19:00:00 12.5 3 Oeste 6 Sudoeste 0 -- -- 71
2020-11-17 18:00:00 16.3 0 Calma 5 Norte 0 -- -- 59
2020-11-17 17:00:00 19.7 0 Calma 5 Nordeste 0 -- -- 41
2020-11-17 16:00:00 19.6 2 Nordeste 8 Norte 0 -- -- 42
2020-11-17 15:00:00 19.3 3 Norte 7 Noroeste 0 -- -- 40
2020-11-17 14:00:00 18.7 3 Oeste 7 Oeste 0 -- -- 42
2020-11-17 13:00:00 16.7 2 Sudeste 6 Este 0 -- -- 59
2020-11-17 12:00:00 14.1 2 Sur 8 Este 0 -- -- 72
2020-11-17 11:00:00 10.5 4 Sudoeste 7 Sudoeste 0 -- -- 84
2020-11-17 10:00:00 6.7 5 Sur 11 Sur 0 -- -- 93
2020-11-17 09:00:00 3.2 6 Sur 9 Sur 0 -- -- 99
2020-11-17 08:00:00 2.4 4 Sudoeste 9 Sur 0 -- -- 98
2020-11-17 07:00:00 3.1 4 Sudoeste 6 Sudoeste 0 -- -- 98
2020-11-17 06:00:00 3.1 2 Sudoeste 4 Sudoeste 0 -- -- 98
2020-11-17 05:00:00 3.3 2 Sudoeste 6 Sudoeste 0 -- -- 98
2020-11-17 04:00:00 4 5 Oeste 8 Sudoeste 0 -- -- 97
2020-11-17 03:00:00 4.3 2 Sur 6 Sudoeste 0 -- -- 97
2020-11-17 02:00:00 4.9 6 Sur 9 Sudoeste 0 -- -- 97
2020-11-17 01:00:00 5.6 3 Sudoeste 9 Sur 0 -- -- 97
2020-11-17 00:00:00 6.1 5 Sur 6 Sur 0 -- -- 96
2020-11-16 23:00:00 6.2 4 Sur 7 Sudoeste 0 -- -- 95
2020-11-16 22:00:00 7.1 6 Sudoeste 9 Sur 0 -- -- 95
2020-11-16 21:00:00 8.1 0 Calma 4 Sudeste 0 -- -- 91
2020-11-16 20:00:00 9.1 0 Calma 2 Norte 0 -- -- 89
2020-11-16 19:00:00 10.9 2 Oeste 6 Norte 0 -- -- 84
2020-11-16 18:00:00 13.1 3 Norte 12 Norte 0 -- -- 75
2020-11-16 17:00:00 14.7 5 Norte 9 Norte 0 -- -- 68
2020-11-16 16:00:00 15.1 6 Noroeste 15 Noroeste 0 -- -- 67
2020-11-16 15:00:00 15.4 5 Noroeste 10 Norte 0 -- -- 67
2020-11-16 14:00:00 15.5 7 Oeste 14 Norte 0 -- -- 65
2020-11-16 13:00:00 14 10 Norte 17 Norte 0 -- -- 78
2020-11-16 12:00:00 14.5 8 Noroeste 15 Noroeste 0 -- -- 74
2020-11-16 11:00:00 13 5 Noroeste 12 Noroeste 0 -- -- 87
2020-11-16 10:00:00 12.2 4 Oeste 10 Noroeste 0 -- -- 96
2020-11-16 09:00:00 11.7 4 Noroeste 11 Noroeste 0 -- -- 98
2020-11-16 08:00:00 11.7 4 Noroeste 6 Noroeste 0 -- -- 97
2020-11-16 07:00:00 11.8 3 Noroeste 11 Oeste 0 -- -- 96
2020-11-16 06:00:00 12.3 5 Oeste 17 Oeste 0 -- -- 96
2020-11-16 05:00:00 12.3 5 Oeste 12 Oeste 0 -- -- 96
2020-11-16 04:00:00 12.4 6 Oeste 16 Noroeste 0 -- -- 95
2020-11-16 03:00:00 12.8 10 Oeste 24 Oeste 0 -- -- 94
2020-11-16 02:00:00 13.2 10 Oeste 21 Oeste 0 -- -- 91
2020-11-16 01:00:00 13.5 6 Oeste 19 Oeste 0 -- -- 91
2020-11-16 00:00:00 13.6 14 Oeste 26 Oeste 0 -- -- 91
2020-11-15 23:00:00 13.5 12 Oeste 24 Oeste 0 -- -- 92
2020-11-15 22:00:00 13.6 15 Oeste 26 Oeste 0 -- -- 91
2020-11-15 21:00:00 14 17 Oeste 29 Oeste 0 -- -- 88
2020-11-15 20:00:00 14 16 Oeste 31 Oeste 0 -- -- 88
2020-11-15 19:00:00 14.5 21 Oeste 28 Oeste 0 -- -- 85
2020-11-15 18:00:00 15 18 Oeste 40 Oeste 0 -- -- 82
2020-11-15 17:00:00 15.8 23 Oeste 45 Oeste 0 -- -- 78
2020-11-15 16:00:00 16.6 24 Oeste 52 Oeste 0 -- -- 75
2020-11-15 15:00:00 17.2 29 Oeste 50 Oeste 0 -- -- 72
2020-11-15 14:00:00 17.1 33 Oeste 58 Oeste 0 -- -- 73
2020-11-15 13:00:00 16.8 34 Oeste 50 Oeste 0 -- -- 74
2020-11-15 12:00:00 16.7 27 Oeste 45 Oeste 0 -- -- 75
2020-11-15 11:00:00 16.1 28 Oeste 41 Oeste 0 -- -- 79
2020-11-15 10:00:00 15.3 19 Sudoeste 28 Oeste 0 -- -- 83
2020-11-15 09:00:00 11.3 9 Sudoeste 15 Sudoeste 0 -- -- 93
2020-11-15 08:00:00 9.7 9 Sudoeste 14 Sudoeste 0 -- -- 94
2020-11-15 07:00:00 9.7 4 Sudoeste 10 Sur 0 -- -- 91
2020-11-15 06:00:00 9.8 5 Sur 10 Sur 0 -- -- 90
2020-11-15 05:00:00 9.5 6 Sur 12 Sur 0 -- -- 92
2020-11-15 04:00:00 9.8 10 Sur 13 Sur 0 -- -- 90
2020-11-15 03:00:00 10.2 7 Sur 11 Sur 0 -- -- 90
2020-11-15 02:00:00 10.2 7 Sur 15 Sur 0 -- -- 89
2020-11-15 01:00:00 10.6 8 Sur 14 Sur 0 -- -- 90
2020-11-15 00:00:00 10.2 9 Sur 12 Sur 0 -- -- 94
2020-11-14 23:00:00 10.1 7 Sudoeste 13 Oeste 0 -- -- 91
2020-11-14 22:00:00 10.9 6 Sudoeste 18 Sudoeste 0 -- -- 90
2020-11-14 21:00:00 12.3 7 Sudoeste 20 Oeste 0 -- -- 88
2020-11-14 20:00:00 13.4 12 Oeste 26 Oeste 0 -- -- 84
2020-11-14 19:00:00 14.3 12 Oeste 26 Oeste 0 -- -- 80
2020-11-14 18:00:00 14.8 7 Oeste 21 Oeste 0 -- -- 78
2020-11-14 17:00:00 15.8 4 Oeste 9 Oeste 0 -- -- 67
2020-11-14 16:00:00 16.3 5 Oeste 14 Oeste 0 -- -- 64
2020-11-14 15:00:00 16.5 6 Oeste 13 Oeste 0 -- -- 62
2020-11-14 14:00:00 15.9 6 Sur 15 Sur 0 -- -- 67
2020-11-14 13:00:00 14.5 9 Sur 16 Sur 0 -- -- 72
2020-11-14 12:00:00 13.3 7 Sur 20 Sur 0 -- -- 78
2020-11-14 11:00:00 11.1 9 Sur 14 Sur 0 -- -- 87
2020-11-14 10:00:00 9.8 5 Sur 8 Sur 0 -- -- 90
2020-11-14 09:00:00 8.5 3 Sudoeste 7 Sur 0 -- -- 93
2020-11-14 08:00:00 8.2 3 Sudoeste 9 Sur 0 -- -- 91
2020-11-14 07:00:00 7.9 4 Sur 6 Sur 0 -- -- 93
2020-11-14 06:00:00 8.7 3 Sudeste 4 Sudeste 0 -- -- 90
2020-11-14 05:00:00 8.7 3 Sur 4 Sudeste 0 -- -- 90
2020-11-14 04:00:00 8.6 0 Calma 4 Sur 0 -- -- 91
2020-11-14 03:00:00 9 0 Calma 6 Sur 0 -- -- 89
2020-11-14 02:00:00 9 3 Sur 10 Sur 0 -- -- 89
2020-11-14 01:00:00 8.5 4 Sur 9 Sur 0 -- -- 91
2020-11-14 00:00:00 8.5 4 Sudoeste 8 Sur 0 -- -- 89
2020-11-13 23:00:00 9.4 4 Sudoeste 6 Sudoeste 0 -- -- 83
2020-11-13 22:00:00 9.9 3 Sur 8 Sur 0 -- -- 83
2020-11-13 21:00:00 10.3 5 Sudeste 8 Sudeste 0 -- -- 87
2020-11-13 20:00:00 10.6 2 Sur 4 Este 0 -- -- 89
2020-11-13 19:00:00 11.1 2 Este 10 Norte 0 -- -- 87
2020-11-13 18:00:00 12.1 7 Norte 15 Sudoeste 0 -- -- 83
2020-11-13 17:00:00 14.6 6 Sudoeste 13 Sudoeste 0 -- -- 64
2020-11-13 16:00:00 14.9 4 Sur 16 Sudeste 0 -- -- 57
2020-11-13 15:00:00 15.2 6 Sudeste 13 Sudeste 0 -- -- 58
2020-11-13 14:00:00 13.1 4 Este 9 Norte 0 -- -- 74
2020-11-13 13:00:00 13.2 0 Calma 9 Sudoeste 0 -- -- 70
2020-11-13 12:00:00 13.3 4 Sudoeste 9 Oeste 0 -- -- 66
2020-11-13 11:00:00 11.1 2 Sudoeste 4 Sudoeste 0 -- -- 78
2020-11-13 10:00:00 7.9 2 Sudoeste 6 Sur 0 -- -- 89
2020-11-13 09:00:00 6 0 Calma 6 Noroeste 0 -- -- 94
2020-11-13 08:00:00 5.5 3 Oeste 5 Sur 0 -- -- 94
2020-11-13 07:00:00 5.4 3 Sudeste 5 Sur 0 -- -- 94
2020-11-13 06:00:00 6.6 3 Sur 9 Sur 0 -- -- 91
2020-11-13 05:00:00 7.3 8 Sur 10 Sur 0 -- -- 90
2020-11-13 04:00:00 7.9 5 Sudoeste 11 Sudoeste 0 -- -- 88
2020-11-13 03:00:00 9 5 Sudoeste 15 Sur 0 -- -- 84
2020-11-13 02:00:00 9.5 8 Sudoeste 14 Sudoeste 0 -- -- 83
2020-11-13 01:00:00 9.4 6 Sudoeste 15 Sur 0 -- -- 83
2020-11-13 00:00:00 10.1 10 Sur 17 Sur 0 -- -- 77
2020-11-12 23:00:00 8.9 5 Sudeste 9 Sudeste 0 -- -- 84
2020-11-12 22:00:00 9.1 2 Sudeste 4 Este 0 -- -- 87
2020-11-12 21:00:00 10.3 4 Sudoeste 11 Sur 0 -- -- 82
2020-11-12 20:00:00 10.2 2 Sudoeste 6 Sudoeste 0 -- -- 84
2020-11-12 19:00:00 11.8 2 Este 5 Este 0 -- -- 79
2020-11-12 18:00:00 13.5 2 Este 10 Este 0 -- -- 70
2020-11-12 17:00:00 14.6 5 Este 12 Sudeste 0 -- -- 63
2020-11-12 16:00:00 15 6 Sudeste 14 Sudeste 0 -- -- 62
2020-11-12 15:00:00 15.2 5 Este 13 Este 0 -- -- 63
2020-11-12 14:00:00 15 6 Sudeste 13 Este 0 -- -- 66
2020-11-12 13:00:00 14.7 5 Este 9 Sudeste 0 -- -- 64
2020-11-12 12:00:00 13.6 7 Sudeste 11 Sur 0 -- -- 68
2020-11-12 11:00:00 10.2 4 Sur 9 Sur 0 -- -- 86
2020-11-12 10:00:00 6.8 6 Sur 8 Sur 0 -- -- 96
2020-11-12 09:00:00 5.9 3 Sudoeste 6 Sudoeste 0 -- -- 97
2020-11-12 08:00:00 5.7 2 Sudoeste 5 Sudoeste 0 -- -- 96
2020-11-12 07:00:00 6.1 3 Oeste 10 Sur 0 -- -- 94
2020-11-12 06:00:00 6.8 6 Sur 9 Sur 0 -- -- 95
2020-11-12 05:00:00 6.9 3 Sur 8 Sur 0 -- -- 93
2020-11-12 04:00:00 6.9 4 Sudoeste 6 Sur 0 -- -- 94
2020-11-12 03:00:00 6.7 3 Sudoeste 8 Sur 0 -- -- 94
2020-11-12 02:00:00 6.6 4 Sudoeste 7 Sudoeste 0 -- -- 94
2020-11-12 01:00:00 6.8 4 Sudoeste 9 Sudoeste 0 -- -- 94
2020-11-12 00:00:00 6.9 7 Sur 10 Sur 0 -- -- 93
2020-11-11 23:00:00 7.2 4 Sudoeste 10 Sur 0 -- -- 93
2020-11-11 22:00:00 7.4 5 Sudoeste 10 Sudoeste 0 -- -- 96
2020-11-11 21:00:00 7.8 4 Sur 6 Sur 0 -- -- 95
2020-11-11 20:00:00 8.1 0 Calma 5 Noroeste 0 -- -- 92
2020-11-11 19:00:00 9.7 0 Calma 5 Sudeste 0 -- -- 88
2020-11-11 18:00:00 10.6 3 Noroeste 8 Noroeste 0 -- -- 84
2020-11-11 17:00:00 11.7 5 Norte 11 Norte 0 -- -- 79
2020-11-11 16:00:00 11.6 8 Norte 13 Norte 0 -- -- 82
2020-11-11 15:00:00 12.4 5 Norte 14 Norte 0 -- -- 78
2020-11-11 14:00:00 11.8 12 Norte 17 Norte 0 -- -- 80
2020-11-11 13:00:00 11.3 7 Noroeste 13 Noroeste 0 -- -- 84
2020-11-11 12:00:00 10.4 8 Norte 13 Norte 0 -- -- 88
2020-11-11 11:00:00 8.5 2 Sudeste 6 Noroeste 0 -- -- 100
2020-11-11 10:00:00 5 3 Noroeste 6 Sur 0 -- -- 100
2020-11-11 09:00:00 3.4 3 Sudeste 7 Sudeste 0 -- -- 100
2020-11-11 08:00:00 3.5 7 Sudeste 10 Este 0 -- -- 99
2020-11-11 07:00:00 4.5 4 Nordeste 8 Nordeste 0 -- -- 100
2020-11-11 06:00:00 5 3 Este 7 Sudeste 0.2 -- -- 100
2020-11-11 05:00:00 5.8 0 Calma 6 Este 0 -- -- 100
2020-11-11 04:00:00 6.3 5 Sudeste 11 Sudeste 0 -- -- 100
2020-11-11 03:00:00 6.3 3 Sudeste 9 Este 0 -- -- 100
2020-11-11 02:00:00 6.8 5 Sur 9 Sudeste 0 -- -- 99
2020-11-11 01:00:00 6.9 7 Sudeste 12 Sudeste 0 -- -- 99
2020-11-11 00:00:00 7.2 4 Este 8 Sudeste 0 -- -- 99
2020-11-10 23:00:00 7.1 3 Este 8 Sudeste 0 -- -- 99
2020-11-10 22:00:00 7 2 Sudoeste 6 Nordeste 0 -- -- 99
2020-11-10 21:00:00 7.4 4 Nordeste 11 Norte 0 -- -- 98
2020-11-10 20:00:00 7.9 9 Norte 13 Noroeste 0 -- -- 97
2020-11-10 19:00:00 8.1 5 Norte 9 Norte 0 -- -- 95
2020-11-10 18:00:00 9.3 4 Este 12 Norte 0 -- -- 91
2020-11-10 17:00:00 10.2 8 Nordeste 15 Nordeste 0 -- -- 88
2020-11-10 16:00:00 11.9 9 Nordeste 15 Este 0 -- -- 83
2020-11-10 15:00:00 11.9 8 Nordeste 13 Nordeste 0 -- -- 81
2020-11-10 14:00:00 10.8 6 Nordeste 12 Este 0 -- -- 88
2020-11-10 13:00:00 9.3 3 Este 8 Sur 0 -- -- 96
2020-11-10 12:00:00 8.4 3 Sudeste 5 Sur 0 -- -- 98
2020-11-10 11:00:00 7.8 3 Este 6 Sudoeste 0 -- -- 99
2020-11-10 10:00:00 7.3 3 Oeste 5 Sudoeste 0 -- -- 99
2020-11-10 09:00:00 6.3 3 Sudoeste 6 Sur 0 -- -- 99
2020-11-10 08:00:00 5.2 0 Calma 4 Sudoeste 0 -- -- 99
2020-11-10 07:00:00 4 3 Sudoeste 4 Sudoeste 0 -- -- 99
2020-11-10 06:00:00 3.3 3 Sur 9 Sudoeste 0 -- -- 98
2020-11-10 05:00:00 3.9 5 Sudoeste 8 Sur 0 -- -- 98
2020-11-10 04:00:00 4.2 4 Sur 8 Sur 0 -- -- 98
2020-11-10 03:00:00 4.5 4 Sur 9 Sur 0 -- -- 97
2020-11-10 02:00:00 4.9 4 Sur 9 Sur 0 -- -- 97
2020-11-10 01:00:00 5.4 5 Sur 8 Sur 0 -- -- 97
2020-11-10 00:00:00 5.9 4 Sur 10 Sur 0 -- -- 96
2020-11-09 23:00:00 6.3 8 Sur 10 Sur 0 -- -- 96
2020-11-09 22:00:00 6.9 5 Sur 8 Sur 0 -- -- 94
2020-11-09 21:00:00 8.1 0 Calma -- -- 0 -- -- 92
2020-11-09 20:00:00 9.2 2 Oeste 5 Noroeste 0 -- -- 89
2020-11-09 19:00:00 10.9 4 Noroeste 7 Norte 0 -- -- 83
2020-11-09 18:00:00 12.7 4 Noroeste 10 Noroeste 0 -- -- 76
2020-11-09 17:00:00 13.3 7 Noroeste 13 Noroeste 0 -- -- 75
2020-11-09 16:00:00 13.6 7 Noroeste 16 Noroeste 0 -- -- 69
2020-11-09 15:00:00 14.6 8 Noroeste 21 Noroeste 0 -- -- 65
2020-11-09 14:00:00 14 10 Oeste 21 Noroeste 0 -- -- 69
2020-11-09 13:00:00 14.2 10 Noroeste 20 Oeste 0 -- -- 68
2020-11-09 12:00:00 13.3 12 Noroeste 21 Oeste 0 -- -- 74
2020-11-09 11:00:00 12.5 6 Sudoeste 13 Sudoeste 0 -- -- 83
2020-11-09 10:00:00 10.4 6 Sudoeste 12 Sudoeste 0 -- -- 96
2020-11-09 09:00:00 7.4 3 Sudoeste 9 Sudoeste 0 -- -- 98
2020-11-09 08:00:00 6.8 5 Sur 9 Sur 0 -- -- 98
2020-11-09 07:00:00 5.8 0 Calma 4 Oeste 0 -- -- 97
2020-11-09 06:00:00 7.1 3 Sudoeste 10 Sudoeste 0 -- -- 97
2020-11-09 05:00:00 7.5 6 Sudoeste 10 Sur 0 -- -- 97
2020-11-09 04:00:00 8.4 6 Sudoeste 13 Oeste 0 -- -- 94
2020-11-09 03:00:00 9.7 8 Oeste 12 Oeste 0 -- -- 90
2020-11-09 02:00:00 10.2 3 Oeste 13 Sur 0 -- -- 90
2020-11-09 01:00:00 10.2 12 Sur 18 Sur 0.2 -- -- 93
2020-11-09 00:00:00 9.1 3 Nordeste 6 Sudeste 0 -- -- 95
2020-11-08 23:00:00 9.2 3 Este 7 Este 0 -- -- 95
2020-11-08 22:00:00 9.5 4 Este 11 Norte 0 -- -- 94
2020-11-08 21:00:00 9.7 4 Norte 15 Norte 0 -- -- 92
2020-11-08 20:00:00 11.6 6 Sudoeste 18 Sudoeste 0.2 -- -- 84
2020-11-08 19:00:00 12.6 10 Sur 21 Sur 0 -- -- 74
2020-11-08 18:00:00 13.1 14 Sur 27 Sur 0 -- -- 72
2020-11-08 17:00:00 13.4 15 Sur 35 Sur 0.2 -- -- 73
2020-11-08 16:00:00 14.8 24 Sur 37 Sur 0 -- -- 66
2020-11-08 15:00:00 16.1 17 Sur 30 Sudoeste 0 -- -- 59
2020-11-08 14:00:00 15.4 15 Sur 33 Sur 0 -- -- 63
2020-11-08 13:00:00 14.8 20 Sur 33 Sur 0 -- -- 64
2020-11-08 12:00:00 13.8 20 Sur 37 Sur 0 -- -- 67
2020-11-08 11:00:00 12.2 19 Sur 34 Sur 0 -- -- 73
2020-11-08 10:00:00 11.9 24 Sur 35 Sur 0 -- -- 76
2020-11-08 09:00:00 9.3 11 Sur 21 Sudoeste 0 -- -- 88
2020-11-08 08:00:00 7.8 8 Sur 12 Sur 0 -- -- 92
2020-11-08 07:00:00 7.7 4 Sur 12 Sudoeste 0 -- -- 90
2020-11-08 06:00:00 8.1 5 Sur 19 Sur 0 -- -- 89
2020-11-08 05:00:00 9.1 12 Sur 18 Sur 0 -- -- 87
2020-11-08 04:00:00 7 6 Sur 10 Sur 0 -- -- 92
2020-11-08 03:00:00 5.7 3 Sur 8 Sur 0 -- -- 93
2020-11-08 02:00:00 5.2 2 Sur 4 Sur 0 -- -- 95
2020-11-08 01:00:00 5.6 0 Calma 6 Sudoeste 0 -- -- 93
2020-11-08 00:00:00 6.4 3 Sur 8 Sur 0 -- -- 91
2020-11-07 23:00:00 7.3 6 Sudoeste 13 Sur 0 -- -- 89
2020-11-07 22:00:00 7.6 3 Sur 10 Sudoeste 0 -- -- 91
2020-11-07 21:00:00 8.6 4 Sudoeste 15 Sur 0 -- -- 89
2020-11-07 20:00:00 9.3 8 Sur 19 Oeste 0 -- -- 88
2020-11-07 19:00:00 10.7 14 Oeste 29 Sudoeste 0 -- -- 82
2020-11-07 18:00:00 12.2 17 Oeste 35 Oeste 0 -- -- 72
2020-11-07 17:00:00 13.6 24 Oeste 40 Oeste 0 -- -- 68
2020-11-07 16:00:00 14.4 24 Oeste 42 Oeste 0 -- -- 70
2020-11-07 15:00:00 14.4 20 Oeste 37 Oeste 0 -- -- 72
2020-11-07 14:00:00 14 18 Oeste 33 Oeste 0 -- -- 76
2020-11-07 13:00:00 12.7 16 Oeste 32 Oeste 0 -- -- 82
2020-11-07 12:00:00 11.7 21 Oeste 29 Noroeste 0 -- -- 88
2020-11-07 11:00:00 11.5 8 Sudoeste 16 Noroeste 0 -- -- 91
2020-11-07 10:00:00 10.6 9 Noroeste 22 Noroeste 0 -- -- 95
2020-11-07 09:00:00 9.8 2 Oeste 6 Noroeste 0 -- -- 96
2020-11-07 08:00:00 9.6 2 Oeste 11 Noroeste 0 -- -- 95
2020-11-07 07:00:00 10.1 2 Nordeste 6 Nordeste 0 -- -- 94
2020-11-07 06:00:00 10.7 3 Nordeste 21 Sur 1.8 -- -- 92
2020-11-07 05:00:00 12.8 11 Sudeste 36 Sur 0 -- -- 76
2020-11-07 04:00:00 12.2 12 Sudeste 27 Sur 0 -- -- 79
2020-11-07 03:00:00 12.2 20 Sur 38 Sur 0 -- -- 79
2020-11-07 02:00:00 13 21 Sur 49 Sudoeste 0 -- -- 76
2020-11-07 01:00:00 13.6 32 Sur 56 Sur 0 -- -- 72
2020-11-07 00:00:00 14.6 30 Sur 49 Sur 0 -- -- 67
2020-11-06 23:00:00 14.2 21 Sur 36 Sur 0.2 -- -- 80
2020-11-06 22:00:00 14.5 16 Sudeste 46 Sudeste 0 -- -- 79
2020-11-06 21:00:00 13.6 22 Sur 60 Sudoeste 3.4 -- -- 81
2020-11-06 20:00:00 11.8 33 Sudoeste 63 Sudoeste 5 -- -- 84
2020-11-06 19:00:00 15.9 10 Sudeste 32 Sudeste 0 -- -- 73
2020-11-06 18:00:00 16.8 17 Sur 36 Sudeste 0 -- -- 67
2020-11-06 17:00:00 17.5 23 Sudeste 41 Sudeste 0 -- -- 66
2020-11-06 16:00:00 17.3 22 Sur 43 Sudeste 0 -- -- 67
2020-11-06 15:00:00 17.5 19 Sur 45 Sur 0 -- -- 66
2020-11-06 14:00:00 17.7 23 Sur 48 Sudeste 0 -- -- 63
2020-11-06 13:00:00 16 18 Sur 42 Sur 0 -- -- 69
2020-11-06 12:00:00 15.5 28 Sur 50 Sudeste 0 -- -- 69
2020-11-06 11:00:00 14.6 22 Sudeste 37 Sudeste 0 -- -- 73
2020-11-06 10:00:00 13.5 12 Sudeste 33 Sudeste 0 -- -- 75
2020-11-06 09:00:00 12.9 22 Sudeste 37 Sudeste 0 -- -- 77
2020-11-06 08:00:00 12.7 14 Sudeste 24 Sudeste 0 -- -- 76
2020-11-06 07:00:00 12 6 Sur 21 Sudeste 0 -- -- 80
2020-11-06 06:00:00 11.9 7 Sudeste 24 Sudeste 0 -- -- 80
2020-11-06 05:00:00 12.3 9 Sudeste 36 Sur 0 -- -- 78
2020-11-06 04:00:00 12.6 21 Sur 37 Sur 0 -- -- 79
2020-11-06 03:00:00 12.2 12 Sudeste 24 Sudeste 0 -- -- 80
2020-11-06 02:00:00 10.7 7 Sudeste 14 Sudeste 0 -- -- 89
2020-11-06 01:00:00 11.5 8 Sudeste 17 Sudeste 0 -- -- 88
2020-11-06 00:00:00 11.6 7 Sudeste 25 Sur 0 -- -- 87
2020-11-05 23:00:00 11 19 Sudeste 29 Sudeste 0 -- -- 89
2020-11-05 22:00:00 9.1 9 Sudeste 24 Sudoeste 2.2 -- -- 93
2020-11-05 21:00:00 10.1 17 Sudoeste 26 Oeste 0.6 -- -- 85
2020-11-05 20:00:00 11.4 9 Sudeste 17 Sudeste 0 -- -- 80
2020-11-05 19:00:00 11.2 9 Sudeste 29 Sudeste 0 -- -- 84
2020-11-05 18:00:00 12.2 17 Sudeste 38 Sur 0 -- -- 79
2020-11-05 17:00:00 13 19 Sudeste 37 Sudeste 0 -- -- 76
2020-11-05 16:00:00 13.7 23 Sudeste 45 Sur 0 -- -- 74
2020-11-05 15:00:00 13.6 21 Sudeste 50 Sur 0 -- -- 74
2020-11-05 14:00:00 13.6 32 Sudeste 48 Sudeste 0 -- -- 73
2020-11-05 13:00:00 13.4 26 Sudeste 46 Sudeste 0 -- -- 73
2020-11-05 12:00:00 13.7 26 Sudeste 45 Sudeste 0 -- -- 72
2020-11-05 11:00:00 12.6 13 Sudeste 31 Este 0 -- -- 74
2020-11-05 10:00:00 9.7 8 Nordeste 17 Este 0 -- -- 86
2020-11-05 09:00:00 7.8 5 Este 16 Sudeste 0 -- -- 89
2020-11-05 08:00:00 7.6 7 Este 15 Este 0 -- -- 89
2020-11-05 07:00:00 7.2 3 Nordeste 21 Este 0 -- -- 89
2020-11-05 06:00:00 6.5 7 Nordeste 14 Este 0 -- -- 93
2020-11-05 05:00:00 6.5 6 Norte 10 Norte 0 -- -- 93
2020-11-05 04:00:00 6.2 5 Nordeste 21 Este 0 -- -- 92
2020-11-05 03:00:00 6.7 14 Este 22 Este 0 -- -- 90
2020-11-05 02:00:00 7 11 Este 21 Este 0.2 -- -- 90
2020-11-05 01:00:00 6.9 9 Este 19 Este 0.2 -- -- 90
2020-11-05 00:00:00 6 5 Este 21 Este 0 -- -- 92